Time;durP1;ratioP1;P1;durP2;ratioP2;P2;SDS_P1;SDS_P2;PMS_P1;PMS_P2;Temp;Humidity;BMP_temperature;BMP_pressure;BME280_temperature;BME280_humidity;BME280_pressure;Samples;Min_cycle;Max_cycle;Signal;HPM_P1;HPM_P2
2021/04/28 00:01:04;;;;;;;8.30;4.22;;;7.30;99.90;;;7.35;81.95;100811.59;5040168;28;20033;-67
2021/04/28 00:03:30;;;;;;;6.15;3.97;;;7.30;99.90;;;7.29;81.44;100809.63;5057035;28;20132;-68
2021/04/28 00:05:55;;;;;;;8.73;4.20;;;7.30;99.90;;;7.33;80.82;100805.53;5074836;28;20483;-68
2021/04/28 00:08:21;;;;;;;9.57;4.53;;;7.30;99.90;;;7.24;79.94;100809.31;5056706;28;20043;-70
2021/04/28 00:10:47;;;;;;;6.03;3.72;;;7.20;99.90;;;7.19;79.65;100806.31;5073351;28;20090;-70
2021/04/28 00:13:17;;;;;;;8.93;4.60;;;7.20;99.90;;;7.22;79.10;100800.53;5040117;28;20124;-68
2021/04/28 00:15:47;;;;;;;4.70;3.65;;;7.20;99.90;;;7.26;78.57;100801.84;5073326;28;20032;-69
2021/04/28 00:18:16;;;;;;;4.13;3.60;;;7.20;99.90;;;7.28;77.85;100788.97;5056700;28;20036;-68
2021/04/28 00:20:43;;;;;;;9.10;3.65;;;7.20;99.90;;;7.26;77.70;100785.59;5073054;28;20099;-68
2021/04/28 00:23:10;;;;;;;3.90;2.97;;;7.20;99.90;;;7.18;77.41;100788.38;5056318;28;20032;-68
2021/04/28 00:25:38;;;;;;;6.18;3.65;;;7.20;99.90;;;7.26;76.93;100781.03;5072959;28;20028;-69
2021/04/28 00:28:05;;;;;;;4.55;3.15;;;7.30;99.90;;;7.24;76.45;100782.22;5039920;28;20494;-69
2021/04/28 00:30:32;;;;;;;7.85;3.42;;;7.20;99.90;;;7.21;76.68;100778.03;5056386;28;20039;-70
2021/04/28 00:32:58;;;;;;;5.72;3.60;;;7.20;99.90;;;7.23;76.47;100781.38;5072839;28;20029;-68
2021/04/28 00:35:24;;;;;;;6.60;4.05;;;7.10;99.90;;;7.10;76.49;100780.31;5072815;28;20036;-70
2021/04/28 00:37:51;;;;;;;4.53;3.28;;;7.10;99.90;;;7.07;76.77;100777.97;5056440;28;20403;-69
2021/04/28 00:40:22;;;;;;;5.18;3.58;;;7.00;99.90;;;7.03;76.87;100779.34;5072805;28;20036;-68
2021/04/28 00:42:49;;;;;;;5.05;3.40;;;7.10;99.90;;;7.03;76.75;100773.91;5072677;28;20051;-69
2021/04/28 00:45:18;;;;;;;5.38;3.42;;;7.10;99.90;;;7.02;76.70;100774.94;5072569;28;20029;-68
2021/04/28 00:47:44;;;;;;;5.88;3.63;;;7.00;99.90;;;7.08;76.25;100764.25;5072312;28;20079;-69
2021/04/28 00:50:14;;;;;;;6.45;4.03;;;7.10;99.90;;;7.03;75.97;100761.22;5072576;28;20558;-70
2021/04/28 00:52:40;;;;;;;5.95;3.20;;;7.10;99.90;;;7.02;75.99;100766.81;5072423;28;20433;-70
2021/04/28 00:55:07;;;;;;;8.35;3.53;;;7.10;99.90;;;6.94;75.89;100759.59;5056059;28;20131;-69
2021/04/28 00:57:33;;;;;;;5.28;3.28;;;7.00;99.90;;;7.02;76.10;100756.84;5055686;28;20395;-70
2021/04/28 01:00:01;;;;;;;4.00;3.05;;;7.10;99.90;;;7.02;75.90;100756.00;5055663;28;20029;-69
2021/04/28 01:02:27;;;;;;;5.63;2.95;;;7.10;99.90;;;7.07;75.55;100753.59;5072405;28;21008;-71
2021/04/28 01:04:53;;;;;;;7.97;3.80;;;7.00;99.90;;;7.00;76.16;100747.25;5055661;28;20028;-71
2021/04/28 01:07:21;;;;;;;5.65;4.32;;;7.00;99.90;;;7.02;76.31;100745.16;5055490;28;20032;-69
2021/04/28 01:09:47;;;;;;;8.98;3.13;;;7.00;99.90;;;6.87;76.46;100745.13;5039508;28;20038;-68
2021/04/28 01:12:13;;;;;;;7.95;3.67;;;7.00;99.90;;;6.77;77.09;100744.50;5072276;28;20040;-69
2021/04/28 01:14:40;;;;;;;6.28;3.88;;;6.90;99.90;;;6.67;78.02;100743.88;5072267;28;20546;-69
2021/04/28 01:17:06;;;;;;;7.45;4.55;;;6.90;99.90;;;6.68;78.06;100732.88;5055469;28;20036;-68
2021/04/28 01:19:40;;;;;;;5.20;3.72;;;6.90;99.90;;;6.71;78.35;100737.94;5072347;28;20043;-70
2021/04/28 01:22:07;;;;;;;4.70;3.08;;;6.80;99.90;;;6.67;78.84;100742.00;5072196;28;20044;-69
2021/04/28 01:24:33;;;;;;;4.75;3.75;;;6.80;99.90;;;6.62;79.04;100735.47;5072296;28;20027;-69
2021/04/28 01:27:07;;;;;;;3.92;3.53;;;6.80;99.90;;;6.67;79.00;100733.88;5055666;28;20037;-70
2021/04/28 01:29:34;;;;;;;;;;;6.80;99.90;;;6.66;79.20;100734.09;5056272;28;20128;-69
2021/04/28 01:32:00;;;;;;;5.93;3.55;;;6.70;99.90;;;6.66;79.24;100729.50;5038663;28;19922;-70
2021/04/28 01:34:28;;;;;;;6.20;3.70;;;6.80;99.90;;;6.65;79.50;100733.25;5055430;28;20511;-70
2021/04/28 01:36:55;;;;;;;3.80;3.35;;;6.70;99.90;;;6.54;79.89;100730.94;5072084;28;20174;-70
2021/04/28 01:39:22;;;;;;;5.30;4.13;;;6.60;99.90;;;6.53;80.45;100735.50;5071885;28;20056;-70
2021/04/28 01:41:50;;;;;;;5.47;4.07;;;6.60;99.90;;;6.57;80.24;100735.97;5071811;28;20052;-69
2021/04/28 01:44:20;;;;;;;6.72;3.65;;;6.60;99.90;;;6.51;80.58;100728.59;5072851;28;20045;-70
2021/04/28 01:46:47;;;;;;;5.78;4.25;;;6.50;99.90;;;6.52;80.60;100722.16;5072375;28;20040;-71
2021/04/28 01:49:13;;;;;;;4.38;3.35;;;6.60;99.90;;;6.56;80.45;100723.47;5071628;28;20131;-70
2021/04/28 01:51:40;;;;;;;4.07;3.20;;;6.50;99.90;;;6.53;80.50;100729.25;5055042;28;20040;-69
2021/04/28 01:54:13;;;;;;;6.50;3.20;;;6.60;99.90;;;6.60;79.91;100722.09;5071695;28;20107;-69
2021/04/28 01:56:40;;;;;;;7.10;3.97;;;6.60;99.90;;;6.60;80.08;100718.56;5072358;28;20168;-69
2021/04/28 01:59:07;;;;;;;5.85;3.25;;;6.60;99.90;;;6.59;80.13;100728.53;5071975;28;20068;-70
2021/04/28 02:01:34;;;;;;;6.85;4.30;;;6.60;99.90;;;6.58;80.49;100721.44;5054971;28;20039;-68
2021/04/28 02:04:00;;;;;;;4.50;3.35;;;6.60;99.90;;;6.63;79.94;100724.47;5055063;28;20115;-69
2021/04/28 02:06:25;;;;;;;5.30;3.60;;;6.60;99.90;;;6.57;80.67;100719.75;5054972;28;20123;-69
2021/04/28 02:08:51;;;;;;;4.53;3.55;;;6.60;99.90;;;6.56;81.35;100713.50;5055517;28;20372;-69
2021/04/28 02:11:17;;;;;;;4.53;3.70;;;6.60;99.90;;;6.56;81.35;100712.66;5042770;28;20071;-70
2021/04/28 02:13:47;;;;;;;8.55;4.93;;;6.50;99.90;;;6.52;81.90;100711.34;5075969;28;20498;-69
2021/04/28 02:16:14;;;;;;;5.63;4.93;;;6.60;99.90;;;6.54;81.88;100712.84;5076114;28;20043;-68
2021/04/28 02:18:41;;;;;;;5.68;3.90;;;6.60;99.90;;;6.39;83.06;100711.06;5059405;28;20024;-69
2021/04/28 02:21:07;;;;;;;9.98;4.15;;;6.50;99.90;;;6.28;84.27;100706.06;5075372;28;20055;-64
2021/04/28 02:23:42;;;;;;;9.00;4.38;;;6.50;99.90;;;6.23;85.09;100706.56;5075435;28;20485;-62
2021/04/28 02:26:08;;;;;;;8.82;4.28;;;6.40;99.90;;;6.13;85.81;100704.09;5075748;28;20029;-62
2021/04/28 02:28:34;;;;;;;5.90;4.60;;;6.30;99.90;;;6.03;87.21;100698.06;5041934;28;20041;-62
2021/04/28 02:31:01;;;;;;;7.40;4.53;;;6.20;99.90;;;5.88;88.25;100701.59;5075311;28;20055;-63
2021/04/28 02:33:27;;;;;;;7.05;5.05;;;6.20;99.90;;;5.92;88.84;100701.13;5076345;28;20040;-62
2021/04/28 02:35:57;;;;;;;9.05;4.60;;;6.10;99.90;;;5.76;89.72;100698.44;5075102;28;20025;-63
2021/04/28 02:38:28;;;;;;;8.57;5.03;;;6.00;99.90;;;5.66;90.73;100697.78;5075348;28;20051;-63
2021/04/28 02:40:54;;;;;;;6.18;4.75;;;5.90;99.90;;;5.61;90.90;100690.22;5075044;28;20028;-62
2021/04/28 02:43:22;;;;;;;5.53;4.22;;;5.90;99.90;;;5.59;91.79;100686.00;5074898;28;20057;-63
2021/04/28 02:45:50;;;;;;;13.15;4.45;;;5.90;99.90;;;5.44;92.33;100686.69;5074900;28;20033;-62
2021/04/28 02:48:21;;;;;;;11.60;4.45;;;5.80;99.90;;;5.43;92.63;100689.56;5074589;28;20514;-66
2021/04/28 02:50:50;;;;;;;6.75;4.80;;;5.70;99.90;;;5.48;92.68;100688.03;5058091;28;20040;-63
2021/04/28 02:53:18;;;;;;;11.02;4.90;;;5.70;99.90;;;5.45;93.14;100688.38;5074740;28;20071;-63
2021/04/28 02:55:45;;;;;;;6.80;4.40;;;5.70;99.90;;;5.39;93.30;100683.69;5058066;28;20029;-64
2021/04/28 02:58:12;;;;;;;9.07;5.43;;;5.60;99.90;;;5.32;94.16;100674.56;5058198;28;20036;-62
2021/04/28 03:00:38;;;;;;;6.60;4.70;;;5.60;99.90;;;5.21;94.79;100674.91;5058260;28;20418;-70
2021/04/28 03:03:05;;;;;;;7.55;5.07;;;5.50;99.90;;;5.25;94.98;100673.56;5041317;28;20032;-69
2021/04/28 03:05:31;;;;;;;9.70;5.20;;;5.50;99.90;;;5.24;95.42;100677.28;5074723;28;20039;-69
2021/04/28 03:07:58;;;;;;;7.45;4.82;;;5.40;99.90;;;5.19;95.08;100676.97;5041256;28;20021;-70
2021/04/28 03:10:24;;;;;;;7.40;5.55;;;5.40;99.90;;;5.22;95.33;100679.28;5074864;28;20059;-71
2021/04/28 03:12:50;;;;;;;8.60;4.93;;;5.40;99.90;;;5.07;95.98;100672.91;5074562;28;20050;-69
2021/04/28 03:15:18;;;;;;;8.38;4.88;;;5.30;99.90;;;5.10;96.26;100672.56;5074336;28;20032;-62
2021/04/28 03:17:45;;;;;;;10.18;5.97;;;5.30;99.90;;;4.98;96.61;100673.91;5057578;28;20089;-63
2021/04/28 03:20:14;;;;;;;9.25;5.57;;;5.20;99.90;;;4.96;97.30;100663.31;5057117;28;20043;-61
2021/04/28 03:22:40;;;;;;;7.15;5.32;;;5.20;99.90;;;4.91;96.94;100664.81;5075434;28;20399;-62
2021/04/28 03:25:08;;;;;;;8.00;5.45;;;5.20;99.90;;;4.89;97.41;100670.38;5057267;28;20040;-62
2021/04/28 03:27:34;;;;;;;7.95;5.10;;;5.10;99.90;;;4.84;97.48;100663.81;5074060;28;20044;-62
2021/04/28 03:30:00;;;;;;;6.03;4.72;;;5.10;99.90;;;4.80;97.85;100665.13;5075279;28;20187;-62
2021/04/28 03:32:26;;;;;;;10.40;5.78;;;5.10;99.90;;;4.83;97.36;100664.81;5074245;28;20033;-61
2021/04/28 03:34:52;;;;;;;11.93;5.65;;;5.00;99.90;;;4.79;98.28;100656.22;5074091;28;20085;-60
2021/04/28 03:37:18;;;;;;;8.93;5.43;;;5.00;99.90;;;4.78;98.00;100659.91;5074015;28;20073;-62
2021/04/28 03:39:44;;;;;;;7.57;6.00;;;4.90;99.90;;;4.64;99.02;100658.72;5073926;28;20389;-61
2021/04/28 03:42:10;;;;;;;11.82;5.70;;;4.90;99.90;;;4.74;98.79;100662.09;5074186;28;20101;-62
2021/04/28 03:44:36;;;;;;;8.02;6.20;;;4.90;99.90;;;4.75;98.70;100666.47;5074055;28;20448;-61
2021/04/28 03:47:04;;;;;;;11.57;6.03;;;4.80;99.90;;;4.61;98.79;100666.31;5073968;28;20064;-62
2021/04/28 03:49:30;;;;;;;10.30;5.88;;;4.80;99.90;;;4.61;99.12;100659.06;5057011;28;20136;-63
2021/04/28 03:51:56;;;;;;;8.07;5.82;;;4.80;99.90;;;4.60;98.59;100657.38;5073587;28;20033;-62
2021/04/28 03:54:21;;;;;;;8.13;5.63;;;4.80;99.90;;;4.55;99.07;100665.09;5040630;28;20032;-69
2021/04/28 03:56:47;;;;;;;10.45;5.45;;;4.80;99.90;;;4.54;99.36;100668.81;5073456;28;20064;-69
2021/04/28 03:59:14;;;;;;;10.48;6.10;;;4.70;99.90;;;4.58;99.25;100659.41;5073535;28;20449;-69
2021/04/28 04:01:40;;;;;;;11.88;6.63;;;4.70;99.90;;;4.58;99.38;100667.47;5073451;28;20058;-69
2021/04/28 04:04:07;;;;;;;7.97;6.20;;;4.70;99.90;;;4.54;99.44;100666.13;5057014;28;20394;-69
2021/04/28 04:06:34;;;;;;;12.90;5.88;;;4.80;99.90;;;4.62;99.17;100671.53;5056749;28;20036;-68
2021/04/28 04:09:00;;;;;;;7.32;5.60;;;4.80;99.90;;;4.77;98.79;100670.84;5074777;28;20082;-68
2021/04/28 04:11:26;;;;;;;7.55;5.78;;;4.80;99.90;;;4.69;98.80;100667.16;5073364;28;20075;-69
2021/04/28 04:13:52;;;;;;;14.60;6.00;;;4.80;99.90;;;4.67;99.27;100663.78;5073268;28;20040;-69
2021/04/28 04:16:18;;;;;;;9.77;6.13;;;4.80;99.90;;;4.80;99.32;100665.13;5056788;28;20127;-68
2021/04/28 04:18:44;;;;;;;10.38;6.03;;;4.70;99.90;;;4.74;99.50;100659.41;5073179;28;20054;-69
2021/04/28 04:21:10;;;;;;;9.23;6.22;;;4.80;99.90;;;4.70;100.00;100663.44;5056534;28;20037;-69
2021/04/28 04:23:36;;;;;;;10.88;6.72;;;4.80;99.90;;;4.79;99.84;100666.16;5073076;28;20109;-69
2021/04/28 04:26:03;;;;;;;14.30;6.10;;;4.80;99.90;;;4.67;100.00;100663.78;5056656;28;20025;-69
2021/04/28 04:28:29;;;;;;;10.50;7.05;;;4.80;99.90;;;4.63;100.00;100658.88;5039718;28;20040;-69
2021/04/28 04:30:55;;;;;;;10.68;6.53;;;4.80;99.90;;;4.69;100.00;100660.91;5056236;28;20041;-70
2021/04/28 04:33:20;;;;;;;11.85;6.28;;;4.80;99.90;;;4.69;100.00;100655.53;5073450;28;20039;-69
2021/04/28 04:35:46;;;;;;;8.05;5.97;;;4.80;99.90;;;4.82;99.84;100663.97;5074057;28;20115;-68
2021/04/28 04:38:16;;;;;;;8.13;6.28;;;4.80;99.90;;;5.02;98.95;100667.16;5073920;28;20036;-69
2021/04/28 04:40:43;;;;;;;8.32;6.75;;;4.90;99.90;;;4.82;99.20;100665.81;5072628;28;20016;-68
2021/04/28 04:43:09;;;;;;;8.15;6.53;;;4.90;99.90;;;4.95;98.92;100667.00;5072691;28;20032;-68
2021/04/28 04:45:35;;;;;;;12.30;6.40;;;4.90;99.90;;;5.09;98.49;100660.91;5072692;28;20024;-68
2021/04/28 04:48:04;;;;;;;7.70;6.38;;;4.90;99.90;;;5.09;97.93;100660.91;5072428;28;20098;-68
2021/04/28 04:50:30;;;;;;;12.20;7.15;;;5.00;99.90;;;5.21;97.68;100661.41;5072484;28;20029;-69
2021/04/28 04:52:56;;;;;;;9.77;6.07;;;5.00;99.90;;;5.27;97.41;100662.59;5055688;28;20033;-68
2021/04/28 04:55:23;;;;;;;10.70;6.60;;;5.10;99.90;;;5.28;96.75;100657.03;5072485;28;20556;-69
2021/04/28 04:57:51;;;;;;;8.75;6.32;;;5.10;99.90;;;5.28;96.55;100658.91;5055804;28;20047;-63
2021/04/28 05:00:18;;;;;;;8.80;6.20;;;5.20;99.90;;;5.66;96.24;100655.41;5072374;28;20046;-63
2021/04/28 05:02:44;;;;;;;12.90;6.53;;;5.30;99.90;;;6.42;94.63;100651.25;5055805;28;20542;-64
2021/04/28 05:05:11;;;;;;;7.63;5.60;;;5.70;99.90;;;7.44;88.49;100664.28;5072243;28;20037;-62
2021/04/28 05:07:37;;;;;;;8.65;5.32;;;6.50;99.90;;;8.83;82.81;100656.06;5072159;28;20064;-62
2021/04/28 05:10:06;;;;;;;11.38;4.88;;;7.40;99.90;;;9.91;77.04;100654.84;5055574;28;20043;-64
2021/04/28 05:12:32;;;;;;;10.45;5.88;;;8.40;99.90;;;11.10;71.75;100662.34;5072240;28;20040;-63
2021/04/28 05:14:57;;;;;;;12.93;5.15;;;9.50;99.90;;;11.78;66.03;100660.25;5072083;28;20036;-63
2021/04/28 05:17:23;;;;;;;6.00;4.32;;;10.30;99.90;;;12.64;62.93;100649.84;5073304;28;20191;-63
2021/04/28 05:19:49;;;;;;;11.70;5.05;;;11.20;99.10;;;13.28;57.71;100654.28;5071937;28;20612;-63
2021/04/28 05:22:15;;;;;;;9.75;4.43;;;11.90;97.20;;;14.34;53.75;100655.91;5073264;28;20043;-64
2021/04/28 05:24:41;;;;;;;7.18;4.72;;;12.60;96.00;;;15.13;49.57;100650.19;5072178;28;20425;-65
2021/04/28 05:27:07;;;;;;;8.68;4.00;;;13.30;94.80;;;15.65;46.34;100649.56;5072950;28;20032;-64
2021/04/28 05:29:33;;;;;;;8.63;4.47;;;14.00;93.00;;;16.67;42.58;100645.22;5072396;28;20079;-67
2021/04/28 05:31:58;;;;;;;6.47;4.15;;;14.90;91.80;;;16.47;42.04;100655.78;5055486;28;20542;-66
2021/04/28 05:34:25;;;;;;;6.25;3.78;;;15.20;90.50;;;16.81;41.66;100641.09;5072160;28;20501;-65
2021/04/28 05:36:51;;;;;;;8.77;4.20;;;15.60;90.10;;;17.74;38.79;100645.97;5055425;28;20094;-69
2021/04/28 05:39:17;;;;;;;7.38;4.07;;;16.10;88.50;;;17.88;38.49;100642.88;5074038;28;20021;-69
2021/04/28 05:41:42;;;;;;;6.20;4.35;;;16.50;87.20;;;17.96;37.37;100647.94;5055342;28;20039;-68
2021/04/28 05:44:09;;;;;;;7.00;3.78;;;16.90;84.70;;;17.60;38.39;100647.41;5054826;28;20077;-69
2021/04/28 05:46:37;;;;;;;5.22;4.00;;;16.90;83.70;;;16.93;39.01;100644.59;5055111;28;20106;-69
2021/04/28 05:49:04;;;;;;;5.95;3.92;;;16.80;83.00;;;16.84;39.03;100645.25;5071353;28;20044;-64
2021/04/28 05:51:31;;;;;;;5.18;4.05;;;16.70;82.70;;;17.95;37.27;100657.28;5071849;28;20029;-62
2021/04/28 05:53:57;;;;;;;9.13;4.22;;;17.00;82.60;;;18.35;36.15;100652.34;5055401;28;20402;-65
2021/04/28 05:56:23;;;;;;;4.03;3.50;;;17.30;81.30;;;19.08;34.79;100647.38;5072118;28;20052;-65
2021/04/28 05:58:48;;;;;;;8.82;3.70;;;17.70;80.60;;;19.71;33.61;100648.50;5072823;28;20448;-65
2021/04/28 06:01:15;;;;;;;4.45;3.78;;;18.20;79.50;;;19.20;33.71;100640.59;5088626;28;20056;-66
2021/04/28 06:03:41;;;;;;;7.00;3.78;;;18.50;77.60;;;18.66;34.63;100648.06;5055179;28;20032;-65
2021/04/28 06:06:08;;;;;;;4.85;4.18;;;18.30;77.30;;;19.73;32.89;100647.16;5071717;28;20398;-67
2021/04/28 06:08:34;;;;;;;3.80;3.30;;;18.50;77.30;;;20.60;31.70;100643.75;5071711;28;20086;-64
2021/04/28 06:11:00;;;;;;;6.85;3.70;;;18.90;76.60;;;21.21;30.13;100643.91;5055100;28;20071;-64
2021/04/28 06:13:26;;;;;;;4.70;3.63;;;19.50;75.20;;;20.20;31.27;100651.84;5071769;28;20037;-64
2021/04/28 06:15:52;;;;;;;9.18;4.22;;;19.60;73.40;;;20.40;31.17;100646.44;5073116;28;20060;-65
2021/04/28 06:18:18;;;;;;;7.63;3.38;;;19.40;73.40;;;19.90;31.97;100658.84;5072759;28;20079;-66
2021/04/28 06:20:44;;;;;;;6.97;3.40;;;19.30;73.50;;;19.44;32.78;100643.00;5054683;28;20047;-67
2021/04/28 06:23:10;;;;;;;4.53;3.13;;;19.00;73.50;;;18.54;33.63;100641.81;5072680;28;20032;-64
2021/04/28 06:25:36;;;;;;;4.15;3.17;;;18.80;73.00;;;17.60;35.76;100649.31;5072846;28;20119;-65
2021/04/28 06:28:02;;;;;;;9.88;4.13;;;18.10;74.30;;;18.71;34.77;100650.06;5054460;28;20035;-66
2021/04/28 06:30:28;;;;;;;6.28;4.40;;;17.80;75.90;;;19.85;32.31;100656.06;5054626;28;20028;-66
2021/04/28 06:32:53;;;;;;;5.72;3.53;;;18.50;75.10;;;19.88;32.22;100668.50;5071405;28;20090;-64
2021/04/28 06:35:19;;;;;;;7.32;4.38;;;18.90;73.90;;;20.27;32.17;100657.97;5072704;28;20068;-64
2021/04/28 06:37:45;;;;;;;5.32;3.58;;;19.20;73.80;;;20.65;31.05;100648.47;5071700;28;20045;-65
2021/04/28 06:40:13;;;;;;;6.72;3.65;;;19.60;72.70;;;20.83;30.43;100653.50;5072989;28;20390;-65
2021/04/28 06:42:39;;;;;;;12.90;4.13;;;19.80;71.70;;;20.94;30.32;100651.59;5071563;28;20054;-65
2021/04/28 06:45:07;;;;;;;6.15;4.10;;;20.00;71.60;;;20.94;30.11;100646.88;5071337;28;20101;-66
2021/04/28 06:47:33;;;;;;;4.15;3.70;;;20.20;70.30;;;20.39;30.72;100661.38;5071469;28;20034;-65
2021/04/28 06:50:00;;;;;;;5.25;3.55;;;20.20;69.70;;;20.81;29.72;100652.94;5071143;28;20044;-64
2021/04/28 06:52:26;;;;;;;8.90;3.95;;;20.40;69.20;;;21.06;29.89;100643.03;5054454;28;20575;-65
2021/04/28 06:54:51;;;;;;;7.63;3.60;;;20.50;69.30;;;21.70;28.51;100648.88;5054862;28;20134;-65
2021/04/28 06:57:17;;;;;;;11.63;4.63;;;21.00;68.10;;;21.84;28.81;100644.41;5075894;28;20040;-67
2021/04/28 06:59:43;;;;;;;8.48;4.18;;;20.90;68.30;;;22.17;28.58;100640.22;5058573;28;20041;-65
2021/04/28 07:02:09;;;;;;;4.05;3.25;;;21.10;68.20;;;21.82;27.68;100646.63;5058082;28;20032;-68
2021/04/28 07:04:35;;;;;;;5.95;3.42;;;21.10;65.80;;;22.81;26.13;100640.22;5058399;28;20064;-69
2021/04/28 07:07:01;;;;;;;4.57;3.15;;;21.50;65.80;;;23.10;25.59;100645.03;5074850;28;20444;-72
2021/04/28 07:09:27;;;;;;;10.13;3.42;;;22.00;64.40;;;22.50;26.04;100643.41;5075821;28;20036;-71
2021/04/28 07:11:52;;;;;;;4.72;3.22;;;22.00;63.40;;;22.75;25.54;100644.16;5074599;28;20056;-69
2021/04/28 07:14:18;;;;;;;4.47;3.35;;;22.00;62.60;;;22.89;25.33;100637.97;5074653;28;20056;-70
2021/04/28 07:16:45;;;;;;;5.72;3.55;;;22.10;62.60;;;22.86;25.61;100644.09;5074451;28;20033;-69
2021/04/28 07:19:11;;;;;;;9.50;3.17;;;22.10;62.40;;;22.51;24.84;100643.13;5074358;28;20062;-70
2021/04/28 07:21:40;;;;;;;9.23;3.72;;;22.00;60.60;;;23.24;24.40;100640.50;5075717;28;20111;-73
2021/04/28 07:24:06;;;;;;;4.38;3.30;;;22.40;60.90;;;22.87;24.50;100642.97;5074379;28;20509;-69
2021/04/28 07:26:33;;;;;;;5.10;2.60;;;22.40;59.90;;;23.51;24.10;100640.84;5075447;28;20035;-68
2021/04/28 07:29:00;;;;;;;4.70;3.05;;;22.50;60.10;;;23.18;24.13;100636.09;5075278;28;20040;-68
2021/04/28 07:31:26;;;;;;;5.30;3.47;;;22.50;59.40;;;22.39;24.75;100637.06;5074073;28;20044;-68
2021/04/28 07:33:52;;;;;;;9.80;3.60;;;22.20;58.90;;;21.94;24.71;100646.34;5074528;28;20128;-68
2021/04/28 07:36:18;;;;;;;10.73;3.10;;;21.90;58.20;;;21.91;24.88;100639.41;5074060;28;20498;-71
2021/04/28 07:38:44;;;;;;;5.10;3.65;;;21.80;58.70;;;22.03;25.47;100641.91;5057190;28;20458;-70
2021/04/28 07:41:10;;;;;;;9.27;3.35;;;21.90;59.20;;;23.58;23.57;100636.91;5074557;28;20364;-68
2021/04/28 07:43:36;;;;;;;8.50;3.22;;;22.20;58.90;;;22.25;24.06;100644.31;5074316;28;20044;-69
2021/04/28 07:46:02;;;;;;;5.45;3.72;;;22.40;57.40;;;23.32;23.00;100630.72;5073775;28;20025;-67
2021/04/28 07:48:28;;;;;;;6.22;2.70;;;22.60;56.90;;;23.39;22.55;100626.47;5073433;28;20110;-68
2021/04/28 07:50:54;;;;;;;6.35;3.25;;;22.70;56.20;;;23.55;22.35;100623.59;5074964;28;20123;-70
2021/04/28 07:53:20;;;;;;;9.15;4.38;;;22.80;55.90;;;23.80;22.18;100626.13;5075029;28;20390;-71
2021/04/28 07:55:47;;;;;;;6.93;3.75;;;22.90;55.80;;;23.55;22.12;100624.44;5075135;28;20028;-70
2021/04/28 07:58:15;;;;;;;6.43;4.00;;;23.10;55.00;;;23.15;22.62;100628.31;5075095;28;20502;-72
2021/04/28 08:00:42;;;;;;;4.55;3.08;;;22.90;55.10;;;22.96;23.18;100622.63;5057056;28;20033;-67
2021/04/28 08:03:08;;;;;;;7.60;3.42;;;22.80;55.10;;;23.06;22.12;100633.66;5074749;28;20032;-67
2021/04/28 08:05:34;;;;;;;4.68;3.05;;;22.70;54.10;;;22.31;22.69;100629.34;5074775;28;20025;-68
2021/04/28 08:07:59;;;;;;;6.00;3.25;;;22.50;53.50;;;21.52;23.62;100621.75;5073187;28;20036;-69
2021/04/28 08:10:25;;;;;;;4.35;3.75;;;22.00;53.70;;;21.50;23.86;100621.19;5056742;28;20040;-69
2021/04/28 08:12:51;;;;;;;4.75;3.85;;;21.60;54.30;;;20.55;24.70;100623.53;5074394;28;20037;-68
2021/04/28 08:15:18;;;;;;;6.93;4.05;;;21.20;54.30;;;21.94;23.05;100630.53;5074271;28;20058;-69
2021/04/28 08:17:44;;;;;;;7.63;4.30;;;21.50;54.00;;;20.95;24.03;100618.09;5073094;28;20028;-69
2021/04/28 08:20:12;;;;;;;8.82;3.53;;;21.30;53.60;;;21.94;23.54;100626.94;5072894;28;20368;-69
2021/04/28 08:22:38;;;;;;;7.88;4.28;;;21.50;54.60;;;23.11;22.25;100619.75;5072973;28;20093;-68
2021/04/28 08:25:08;;;;;;;7.03;4.03;;;22.00;54.20;;;22.49;23.07;100614.81;5072955;28;20025;-72
2021/04/28 08:27:34;;;;;;;4.32;3.40;;;22.30;53.90;;;22.36;23.16;100612.66;5073139;28;20045;-69
2021/04/28 08:30:01;;;;;;;6.00;3.80;;;22.40;53.90;;;22.88;22.37;100614.09;5056393;28;20090;-68
2021/04/28 08:32:27;;;;;;;7.25;3.42;;;22.70;53.10;;;22.85;22.75;100615.50;5072884;28;20035;-69
2021/04/28 08:34:53;;;;;;;6.35;3.40;;;22.80;53.40;;;22.41;23.11;100616.25;5072980;28;20048;-68
2021/04/28 08:37:20;;;;;;;5.57;3.08;;;22.70;53.20;;;21.55;23.70;100612.88;5056313;28;20067;-69
2021/04/28 08:39:46;;;;;;;4.10;3.08;;;22.20;52.80;;;21.01;24.62;100613.38;5056066;28;20028;-69
2021/04/28 08:42:12;;;;;;;6.63;3.28;;;21.60;53.50;;;22.93;22.77;100614.03;5056204;28;20032;-69
2021/04/28 08:44:39;;;;;;;6.88;3.60;;;21.90;54.10;;;23.40;21.25;100622.56;5072738;28;20054;-68
2021/04/28 08:47:04;;;;;;;6.15;4.13;;;22.60;51.90;;;22.61;22.34;100620.88;5056080;28;20070;-67
2021/04/28 08:49:30;;;;;;;3.85;3.10;;;22.60;52.00;;;21.97;22.38;100620.84;5072303;28;20090;-69
2021/04/28 08:51:56;;;;;;;5.20;3.80;;;22.60;51.40;;;22.23;22.99;100629.94;5073848;28;20429;-70
2021/04/28 08:54:24;;;;;;;10.40;5.00;;;22.30;52.50;;;22.39;23.21;100618.50;5074107;28;20033;-67
2021/04/28 08:56:52;;;;;;;10.73;5.15;;;22.20;53.30;;;22.24;23.99;100620.47;5072366;28;20064;-68
2021/04/28 08:59:19;;;;;;;7.05;3.40;;;22.50;53.80;;;21.93;24.70;100617.78;5039655;28;20119;-68
2021/04/28 09:01:47;;;;;;;7.53;3.70;;;22.20;54.00;;;22.49;23.82;100612.06;5072417;28;20506;-67
2021/04/28 09:04:19;;;;;;;4.22;3.17;;;22.60;53.60;;;22.66;24.04;100620.03;5072826;28;20024;-66
2021/04/28 09:06:46;;;;;;;5.55;3.50;;;22.60;54.10;;;22.80;24.13;100602.47;5072560;28;20040;-67
2021/04/28 09:09:18;;;;;;;4.97;3.55;;;22.60;54.30;;;23.20;23.16;100619.13;5072420;28;20039;-69
2021/04/28 09:11:53;;;;;;;6.68;3.50;;;22.80;54.10;;;22.96;22.49;100605.16;5072412;28;20028;-69
2021/04/28 09:14:26;;;;;;;4.88;3.45;;;22.70;52.50;;;21.70;23.82;100604.53;5072570;28;20035;-68
2021/04/28 09:16:55;;;;;;;5.57;3.53;;;22.30;52.30;;;22.85;22.71;100603.56;5073469;28;20036;-68
2021/04/28 09:19:38;;;;;;;9.00;4.35;;;22.60;52.40;;;22.98;22.65;100597.38;5073229;28;20059;-70
2021/04/28 09:22:08;;;;;;;7.63;3.65;;;22.90;52.30;;;23.16;21.82;100599.44;5040858;28;20098;-68
2021/04/28 09:24:45;;;;;;;9.70;4.40;;;23.00;51.30;;;22.12;22.31;100584.78;5072084;28;20039;-68
2021/04/28 09:27:40;;;;;;;5.85;3.83;;;22.70;50.60;;;21.72;22.46;100602.31;5073345;28;20081;-69
2021/04/28 09:30:21;;;;;;;6.65;3.58;;;22.20;50.30;;;21.83;22.58;100592.88;5072155;28;20037;-70
2021/04/28 09:32:47;;;;;;;8.57;4.40;;;21.90;50.70;;;21.60;22.42;100605.38;5057248;28;20025;-69
2021/04/28 09:35:19;;;;;;;5.95;3.80;;;22.00;50.20;;;21.63;22.22;100587.38;5072056;28;20029;-67
2021/04/28 09:37:56;;;;;;;4.32;3.90;;;22.10;50.20;;;20.95;23.76;100586.81;5055848;28;20044;-68
2021/04/28 09:40:50;;;;;;;5.72;3.97;;;21.60;51.00;;;22.08;22.17;100584.50;5072343;28;20112;-71
2021/04/28 09:43:17;;;;;;;4.37;3.60;;;21.80;50.60;;;22.38;21.64;100582.72;5072104;28;20037;-68
2021/04/28 09:45:51;;;;;;;8.27;4.53;;;22.00;49.90;;;21.59;21.79;100586.25;5072652;28;20282;-69
2021/04/28 09:48:20;;;;;;;9.15;4.25;;;21.80;49.20;;;20.59;21.99;100580.41;5072000;28;20040;-68
2021/04/28 09:50:46;;;;;;;7.15;4.20;;;21.30;48.30;;;21.65;20.54;100574.09;5073619;28;20108;-68
2021/04/28 09:53:41;;;;;;;5.55;3.97;;;21.40;48.20;;;20.69;21.80;100574.06;5072532;28;20064;-67
2021/04/28 09:56:17;;;;;;;6.38;4.40;;;21.30;48.20;;;20.75;22.85;100570.19;5051720;28;20402;-70
2021/04/28 09:58:49;;;;;;;6.35;4.30;;;20.80;49.90;;;20.76;22.23;100580.16;5056057;28;20048;-68
2021/04/28 10:01:32;;;;;;;6.95;4.22;;;20.90;49.20;;;20.55;23.04;100557.97;5072668;28;20482;-68
2021/04/28 10:03:58;;;;;;;11.52;4.95;;;21.00;49.70;;;20.81;22.37;100561.63;5055717;28;20029;-67
2021/04/28 10:06:49;;;;;;;5.43;3.75;;;20.90;49.40;;;21.15;21.70;100556.38;5072475;28;20029;-73
2021/04/28 10:09:30;;;;;;;9.13;5.50;;;21.00;48.90;;;20.58;22.04;100565.72;5072268;28;20051;-67
2021/04/28 10:11:58;;;;;;;6.90;3.83;;;20.90;48.70;;;20.10;23.17;100552.28;5073124;28;20170;-68
2021/04/28 10:14:27;;;;;;;7.55;4.50;;;20.70;49.40;;;20.78;22.30;100553.03;5072503;28;20085;-67
2021/04/28 10:16:59;;;;;;;5.18;3.92;;;20.70;49.20;;;20.00;22.66;100552.25;5072390;28;20033;-72
2021/04/28 10:19:25;;;;;;;4.75;4.22;;;20.50;48.70;;;19.45;23.02;100556.31;5072250;28;20040;-67